createdAt,value
2023-01-08T00:00:01.258Z,69.40
2023-01-08T00:04:06.787Z,69.00
2023-01-08T00:08:12.482Z,68.90
2023-01-08T00:12:18.165Z,69.00
2023-01-08T00:16:23.682Z,68.90
2023-01-08T00:20:29.772Z,68.90
2023-01-08T00:24:35.254Z,69.00
2023-01-08T00:28:41.404Z,69.00
2023-01-08T00:32:47.423Z,68.90
2023-01-08T00:36:52.894Z,68.80
2023-01-08T00:40:58.343Z,68.80
2023-01-08T00:45:04.762Z,68.80
2023-01-08T00:49:10.559Z,68.70
2023-01-08T00:53:16.192Z,69.40
2023-01-08T00:57:21.940Z,68.80
2023-01-08T01:01:27.533Z,68.80
2023-01-08T01:05:33.137Z,68.80
2023-01-08T01:09:38.735Z,68.80
2023-01-08T01:13:44.219Z,68.70
2023-01-08T01:17:49.713Z,69.40
2023-01-08T01:21:55.384Z,68.70
2023-01-08T01:26:00.892Z,68.60
2023-01-08T01:30:07.471Z,68.80
2023-01-08T01:34:13.135Z,68.70
2023-01-08T01:38:18.578Z,68.60
2023-01-08T01:42:44.006Z,68.60
2023-01-08T01:46:50.492Z,68.70
2023-01-08T01:50:56.141Z,68.50
2023-01-08T01:55:02.216Z,68.40
2023-01-08T01:59:08.056Z,68.60
2023-01-08T02:03:15.404Z,68.70
2023-01-08T02:07:49.815Z,68.70
2023-01-08T02:12:18.726Z,69.30
2023-01-08T02:16:40.461Z,69.00
2023-01-08T02:21:10.759Z,69.40
2023-01-08T02:26:06.379Z,68.90
2023-01-08T02:30:12.431Z,68.70
2023-01-08T02:34:18.088Z,68.90
2023-01-08T02:38:24.699Z,69.00
2023-01-08T02:43:00.097Z,68.80
2023-01-08T02:47:14.875Z,68.70
2023-01-08T02:51:31.432Z,68.90
2023-01-08T02:55:39.483Z,68.60
2023-01-08T02:59:48.343Z,68.70
2023-01-08T03:04:08.780Z,68.80
2023-01-08T03:08:14.787Z,68.70
2023-01-08T03:12:50.975Z,68.80
2023-01-08T03:17:08.874Z,68.60
2023-01-08T03:21:16.143Z,69.40
2023-01-08T03:25:25.680Z,68.70
2023-01-08T03:29:31.940Z,68.80
2023-01-08T03:33:38.956Z,68.80
2023-01-08T03:37:52.109Z,68.80
2023-01-08T03:42:03.057Z,68.80
2023-01-08T03:46:16.672Z,68.80
2023-01-08T03:50:26.631Z,68.80
2023-01-08T03:54:37.192Z,68.80
2023-01-08T03:58:42.679Z,68.80
2023-01-08T04:02:48.149Z,68.80
2023-01-08T04:06:53.750Z,68.80
2023-01-08T04:10:59.354Z,69.50
2023-01-08T04:15:05.486Z,68.70
2023-01-08T04:19:14.680Z,68.70
2023-01-08T04:23:20.131Z,68.50
2023-01-08T04:27:25.599Z,68.70
2023-01-08T04:31:32.016Z,68.60
2023-01-08T04:35:37.575Z,68.70
2023-01-08T04:39:43.098Z,68.90
2023-01-08T04:43:48.631Z,69.00
2023-01-08T04:47:58.600Z,69.00
2023-01-08T04:52:04.408Z,69.00
2023-01-08T04:56:11.498Z,69.10
2023-01-08T05:00:17.319Z,69.40
2023-01-08T05:04:22.866Z,69.30
2023-01-08T05:08:28.382Z,69.40
2023-01-08T05:12:33.835Z,69.40
2023-01-08T05:16:39.370Z,69.40
2023-01-08T05:20:44.992Z,69.50
2023-01-08T05:24:50.468Z,69.40
2023-01-08T05:28:55.958Z,69.40
2023-01-08T05:33:01.542Z,69.40
2023-01-08T05:37:07.115Z,69.30
2023-01-08T05:41:12.853Z,69.40
2023-01-08T05:45:18.425Z,69.40
2023-01-08T05:49:24.276Z,69.40
2023-01-08T05:53:32.084Z,69.40
2023-01-08T05:57:37.739Z,69.30
2023-01-08T06:01:43.414Z,69.40
2023-01-08T06:05:49.080Z,69.50
2023-01-08T06:09:54.681Z,69.60
2023-01-08T06:14:00.138Z,69.60
2023-01-08T06:18:05.733Z,69.60
2023-01-08T06:22:11.286Z,69.60
2023-01-08T06:26:16.816Z,69.60
2023-01-08T06:30:22.340Z,69.50
2023-01-08T06:34:27.880Z,69.60
2023-01-08T06:38:35.259Z,69.50
2023-01-08T06:42:40.878Z,69.60
2023-01-08T06:46:46.691Z,69.60
2023-01-08T06:50:53.271Z,69.50
2023-01-08T06:54:58.897Z,69.60
2023-01-08T06:59:04.437Z,69.60
2023-01-08T07:03:09.986Z,69.70
2023-01-08T07:07:15.908Z,69.70
2023-01-08T07:11:21.512Z,69.70
2023-01-08T07:15:26.973Z,69.70
2023-01-08T07:19:32.555Z,69.80
2023-01-08T07:23:38.465Z,69.80
2023-01-08T07:27:43.975Z,68.80
2023-01-08T07:31:49.540Z,69.30
2023-01-08T07:35:56.520Z,70.10
2023-01-08T07:40:01.994Z,69.60
2023-01-08T07:44:07.451Z,69.80
2023-01-08T07:48:16.591Z,69.80
2023-01-08T07:52:22.285Z,69.90
2023-01-08T07:56:27.767Z,69.90
2023-01-08T08:00:33.286Z,69.90
2023-01-08T08:04:38.870Z,69.90
2023-01-08T08:08:44.315Z,70.00
2023-01-08T08:12:50.006Z,70.10
2023-01-08T08:16:55.661Z,70.20
2023-01-08T08:21:01.685Z,70.20
2023-01-08T08:25:07.731Z,70.30
2023-01-08T08:29:13.205Z,70.30
2023-01-08T08:33:18.727Z,70.20
2023-01-08T08:37:24.329Z,70.30
2023-01-08T08:41:30.131Z,70.40
2023-01-08T08:45:36.299Z,70.50
2023-01-08T08:49:41.807Z,70.50
2023-01-08T08:53:47.445Z,70.50
2023-01-08T08:57:53.095Z,70.50
2023-01-08T09:01:58.784Z,70.50
2023-01-08T09:06:04.758Z,70.50
2023-01-08T09:10:10.353Z,70.50
2023-01-08T09:14:15.957Z,70.60
2023-01-08T09:18:21.529Z,70.70
2023-01-08T09:22:29.589Z,70.70
2023-01-08T09:26:35.210Z,70.80
2023-01-08T09:30:40.974Z,70.90
2023-01-08T09:34:46.452Z,71.10
2023-01-08T09:38:51.917Z,71.40
2023-01-08T09:43:03.699Z,71.80
2023-01-08T09:47:22.675Z,72.30
2023-01-08T09:51:35.116Z,73.40
2023-01-08T09:55:41.416Z,72.90
2023-01-08T09:59:48.505Z,73.00
2023-01-08T10:04:20.525Z,73.30
2023-01-08T10:08:26.173Z,74.20
2023-01-08T10:12:33.747Z,73.70
2023-01-08T10:16:41.353Z,74.50
2023-01-08T10:20:46.804Z,74.20
2023-01-08T10:24:52.829Z,75.00
2023-01-08T10:29:16.068Z,74.50
2023-01-08T10:33:37.704Z,75.10
2023-01-08T10:37:43.749Z,74.70
2023-01-08T10:41:50.835Z,74.80
2023-01-08T10:46:04.814Z,74.80
2023-01-08T10:50:25.171Z,75.00
2023-01-08T10:54:40.069Z,75.40
2023-01-08T10:58:45.754Z,75.20
2023-01-08T11:02:51.557Z,75.00
2023-01-08T11:06:59.900Z,75.00
2023-01-08T11:11:09.343Z,75.20
2023-01-08T11:15:28.589Z,75.10
2023-01-08T11:19:34.415Z,75.10
2023-01-08T11:23:39.987Z,75.10
2023-01-08T11:27:46.822Z,75.20
2023-01-08T11:32:09.918Z,75.20
2023-01-08T11:36:33.910Z,75.30
2023-01-08T11:41:09.383Z,75.50
2023-01-08T11:45:44.023Z,75.30
2023-01-08T11:50:22.399Z,75.30
2023-01-08T11:54:34.398Z,75.20
2023-01-08T11:59:14.080Z,75.00
2023-01-08T12:03:41.854Z,75.10
2023-01-08T12:08:23.759Z,74.80
2023-01-08T12:12:55.921Z,74.70
2023-01-08T12:17:24.910Z,74.40
2023-01-08T12:21:45.400Z,74.20
2023-01-08T12:26:16.804Z,74.20
2023-01-08T12:31:10.187Z,74.10
2023-01-08T12:35:25.507Z,73.90
2023-01-08T12:39:38.842Z,74.10
2023-01-08T12:43:58.663Z,74.10
2023-01-08T12:48:11.685Z,74.00
2023-01-08T12:52:51.115Z,74.00
2023-01-08T12:57:14.679Z,74.30
2023-01-08T13:01:44.741Z,73.60
2023-01-08T13:05:51.105Z,73.20
2023-01-08T13:10:21.752Z,73.20
2023-01-08T13:14:27.929Z,72.90
2023-01-08T13:18:34.232Z,72.90
2023-01-08T13:22:40.735Z,72.50
2023-01-08T13:26:46.173Z,73.30
2023-01-08T13:30:52.057Z,72.40
2023-01-08T13:35:26.040Z,72.10
2023-01-08T13:39:39.280Z,71.50
2023-01-08T13:43:46.690Z,71.70
2023-01-08T13:47:52.151Z,71.70
2023-01-08T13:51:57.735Z,71.50
2023-01-08T13:56:08.095Z,71.40
2023-01-08T14:00:42.072Z,71.40
2023-01-08T14:04:51.695Z,71.00
2023-01-08T14:09:01.288Z,71.10
2023-01-08T14:13:09.017Z,71.10
2023-01-08T14:17:17.144Z,71.10
2023-01-08T14:21:23.755Z,70.80
2023-01-08T14:25:30.281Z,70.80
2023-01-08T14:29:36.632Z,70.60
2023-01-08T14:33:42.901Z,70.50
2023-01-08T14:37:48.399Z,70.40
2023-01-08T14:42:14.284Z,70.30
2023-01-08T14:46:26.722Z,70.40
2023-01-08T14:50:43.027Z,70.30
2023-01-08T14:54:53.547Z,70.20
2023-01-08T14:59:00.247Z,70.40
2023-01-08T15:03:06.263Z,70.50
2023-01-08T15:07:29.648Z,70.60
2023-01-08T15:12:02.090Z,70.30
2023-01-08T15:16:33.615Z,70.50
2023-01-08T15:20:39.166Z,70.90
2023-01-08T15:24:55.549Z,71.60
2023-01-08T15:29:05.678Z,71.00
2023-01-08T15:33:24.634Z,71.00
2023-01-08T15:37:30.506Z,71.00
2023-01-08T15:41:56.917Z,71.00
2023-01-08T15:46:02.391Z,71.00
2023-01-08T15:50:09.236Z,71.00
2023-01-08T15:54:15.608Z,70.80
2023-01-08T15:58:21.090Z,70.70
2023-01-08T16:02:26.658Z,70.70
2023-01-08T16:06:32.452Z,70.70
2023-01-08T16:10:38.288Z,70.90
2023-01-08T16:14:43.972Z,71.00
2023-01-08T16:18:49.596Z,71.20
2023-01-08T16:22:56.606Z,71.20
2023-01-08T16:27:02.281Z,71.10
2023-01-08T16:31:08.682Z,71.00
2023-01-08T16:35:14.158Z,70.90
2023-01-08T16:39:19.625Z,71.00
2023-01-08T16:43:30.424Z,70.90
2023-01-08T16:47:39.520Z,70.80
2023-01-08T16:51:44.971Z,70.90
2023-01-08T16:55:50.445Z,71.00
2023-01-08T16:59:56.017Z,71.20
2023-01-08T17:04:01.801Z,71.10
2023-01-08T17:08:08.271Z,71.30
2023-01-08T17:12:22.293Z,71.20
2023-01-08T17:16:27.851Z,71.50
2023-01-08T17:20:33.405Z,71.20
2023-01-08T17:24:39.071Z,71.60
2023-01-08T17:28:45.458Z,71.60
2023-01-08T17:32:51.016Z,71.80
2023-01-08T17:36:56.532Z,72.00
2023-01-08T17:41:02.243Z,72.50
2023-01-08T17:45:08.563Z,72.50
2023-01-08T17:49:16.492Z,72.30
2023-01-08T17:53:21.996Z,72.70
2023-01-08T17:57:31.401Z,73.10
2023-01-08T18:01:36.963Z,73.00
2023-01-08T18:05:42.509Z,73.20
2023-01-08T18:09:49.387Z,73.30
2023-01-08T18:14:00.673Z,73.80
2023-01-08T18:18:06.268Z,73.90
2023-01-08T18:22:11.857Z,74.10
2023-01-08T18:26:20.739Z,74.30
2023-01-08T18:30:27.042Z,74.60
2023-01-08T18:34:32.534Z,74.70
2023-01-08T18:38:41.015Z,74.70
2023-01-08T18:42:48.240Z,74.90
2023-01-08T18:46:54.122Z,75.40
2023-01-08T18:51:05.281Z,75.40
2023-01-08T18:55:11.153Z,75.60
2023-01-08T18:59:16.793Z,75.90
2023-01-08T19:03:22.655Z,76.00
2023-01-08T19:07:28.280Z,76.20
2023-01-08T19:11:33.881Z,76.20
2023-01-08T19:15:39.348Z,77.00
2023-01-08T19:19:44.912Z,77.10
2023-01-08T19:23:50.768Z,77.20
2023-01-08T19:27:56.286Z,77.20
2023-01-08T19:32:01.773Z,77.00
2023-01-08T19:36:12.488Z,76.80
2023-01-08T19:40:18.489Z,76.70
2023-01-08T19:44:24.097Z,76.70
2023-01-08T19:48:29.587Z,76.80
2023-01-08T19:52:35.051Z,76.60
2023-01-08T19:56:40.538Z,76.40
2023-01-08T20:00:46.400Z,76.80
2023-01-08T20:04:52.212Z,76.20
2023-01-08T20:09:00.175Z,76.00
2023-01-08T20:13:06.967Z,75.90
2023-01-08T20:17:12.537Z,75.80
2023-01-08T20:21:21.683Z,75.60
2023-01-08T20:25:27.328Z,75.50
2023-01-08T20:29:33.135Z,75.50
2023-01-08T20:33:39.640Z,75.20
2023-01-08T20:37:46.838Z,75.10
2023-01-08T20:42:01.155Z,74.90
2023-01-08T20:46:10.416Z,74.90
2023-01-08T20:50:20.335Z,74.70
2023-01-08T20:54:27.334Z,74.70
2023-01-08T20:58:39.140Z,74.60
2023-01-08T21:02:44.769Z,74.50
2023-01-08T21:06:50.326Z,74.50
2023-01-08T21:11:04.973Z,74.50
2023-01-08T21:15:12.562Z,74.40
2023-01-08T21:19:18.106Z,74.30
2023-01-08T21:23:23.688Z,74.60
2023-01-08T21:27:29.440Z,74.30
2023-01-08T21:31:37.351Z,74.20
2023-01-08T21:35:42.832Z,74.00
2023-01-08T21:39:48.717Z,74.10
2023-01-08T21:44:12.696Z,74.10
2023-01-08T21:48:18.219Z,74.20
2023-01-08T21:52:42.061Z,74.20
2023-01-08T21:56:47.514Z,74.10
2023-01-08T22:00:53.741Z,74.20
2023-01-08T22:04:59.413Z,73.90
2023-01-08T22:09:05.345Z,74.20
2023-01-08T22:13:11.819Z,74.30
2023-01-08T22:17:17.414Z,74.10
2023-01-08T22:21:23.205Z,74.10
2023-01-08T22:25:29.029Z,74.20
2023-01-08T22:29:36.674Z,74.20
2023-01-08T22:33:42.881Z,74.40
2023-01-08T22:37:48.451Z,74.40
2023-01-08T22:41:54.152Z,74.90
2023-01-08T22:46:00.928Z,75.30
2023-01-08T22:50:06.825Z,75.40
2023-01-08T22:54:14.209Z,75.20
2023-01-08T22:58:20.119Z,75.20
2023-01-08T23:02:25.676Z,75.10
2023-01-08T23:06:32.604Z,75.40
2023-01-08T23:10:38.183Z,75.20
2023-01-08T23:14:45.090Z,75.10
2023-01-08T23:18:50.683Z,75.00
2023-01-08T23:22:56.213Z,75.00
2023-01-08T23:27:01.865Z,75.00
2023-01-08T23:31:13.792Z,75.00
2023-01-08T23:35:19.259Z,74.80
2023-01-08T23:39:26.665Z,75.00
2023-01-08T23:43:32.320Z,75.40
2023-01-08T23:47:37.791Z,75.40
2023-01-08T23:51:43.262Z,75.60
2023-01-08T23:55:49.052Z,75.60
2023-01-08T23:59:55.491Z,75.60
